Llano, TX

4:15 PM CST on February 08, 2016 (GMT -0600)
Indian Hills | | Change Station
CLOSE
Current Station
Personal Weather Station
Location: Buchanan Dam, TX
Elevation: 1060 ft
Nearby Weather Stations
Active Advisory: Fire Weather Warning

Elev 1060 ft 30.74 °N, 98.45 °W | Updated 27 seconds ago

Clear
Clear
61.5 °F
Feels Like 61.5 °F
N
6.0
Wind Variable Wind from NW
Gusts 7.4 mph

Today
High -- | Low -- °F
--% Chance of Precip.
Yesterday
High -- | Low -- °F
Precip. -- in
Pressure 30.35 in
Visibility 10.0 miles
Clouds Clear
Dew Point 20 °F
Humidity 20%
Rainfall 0.00 in
Snow Depth Not available.
7:21 AM 6:16 PM
New Moon, 0% visible
METAR KAQO 082155Z AUTO 33014G21KT 10SM CLR 16/M10 A3035 RMK AO2
Pressure 30.35 in
Visibility 10.0 miles
Clouds Clear
Dew Point 20 °F
Humidity 20%
Rainfall 0.00 in
Snow Depth Not available.
7:21 AM 6:16 PM
New Moon, 0% visible
METAR KAQO 082155Z AUTO 33014G21KT 10SM CLR 16/M10 A3035 RMK AO2

10-Day Weather Forecast

Almanac

Astronomy

Feb. 08, 2016 Rise Set
Actual Time
Civil Twilight
Nautical Twilight
Astronomical Twilight
Moon
Length of Visible Light
Length of Day
Tomorrow will be .
, % of the Moon is Illuminated

Today's Extremes

State Highs State Lows

Community

WunderPhotos

Upload Photos

1,891,516 photos uploaded!

WunderBlog® & News

Nearby

Air Quality

  Air Quality AQ Index Pollutant
Not available.

Snow Depth

Station Depth Elevation

Earthquake Activity

City Distance Mag. Time & Date
Minimum magnitude displayed is 2.5.

Coastal Water Temperatures

Place Temperature

Stations

Nearby Weather Stations

Station Location Temp. Windchill Dew Point Humidity Wind Precip. Elev Updated Type
                   

Watches & Warnings

Fire Weather Warning
Issued: 1:52 PM CST Feb. 8, 2016 – National Weather Service

... Red flag warning remains in effect until 5 PM CST this
afternoon for gusty north winds and low relative humidity values
for fire weather zones 171... 172... 173... 190... 191... 192... 193...
194... 206... 207... 208... 209... 221... 222... 223... 224 and 225...

* wind... north to northwest at 15 to 20 with gusts to 25 to 30
mph.

* Humidity... minimum afternoon humidity falling to 10-20 percent.

* Impacts... any fires that develop will likely spread rapidly.
Outdoor burning is not recommended.

Precautionary/preparedness actions...

A red flag warning means that critical fire weather conditions
are either occurring now... or will shortly. A combination of
strong winds... low relative humidity... and warm temperatures can
contribute to extreme fire behavior.



Allen